EDW214 LSZH-GCTS
Flight info
| Callsign | EDW214 |
|---|---|
| Flight time | N/A |
| Altitude | 41000 |
| Route | VEBIT T50 ROTOS Z669 ULMES DCT VADAR DCT NINTU DCT MEBAK DCT REPSI DCT LERGA DCT MINSO DCT NARAK DCT AGN DCT PIPOR L866 PPN N976 DGO DCT NEA DCT ZANKO DCT RIDAV DCT ADINO DCT ELVAR DCT BEXAL UN866 KONBA |
| Aircraft | A359/H-SDE2E3GHIJ3J4J5LM1ORWXY/LB1D1 |
Departure
| Time | 2026-05-06 02:35 |
|---|---|
| Airport | Zürich Airport (LSZH) |
Arrival
| Time | N/A |
|---|---|
| Airport | Tenerife Sur Airport (GCTS) |
| Time | Latitude | Longitude | Altitude | Speed | Heading |
|---|---|---|---|---|---|
| 2026-05-06 02:21 | 47.46032 | 8.55832 | 1418 ft | 0 kts | 6° |
| 2026-05-06 02:27 | 47.46029 | 8.55832 | 1410 ft | 3 kts | 6° |
| 2026-05-06 02:27 | 47.46003 | 8.55824 | 1412 ft | 4 kts | 21° |
| 2026-05-06 02:27 | 47.45979 | 8.55806 | 1415 ft | 4 kts | 39° |
| 2026-05-06 02:27 | 47.45961 | 8.55778 | 1415 ft | 4 kts | 59° |
| 2026-05-06 02:28 | 47.45950 | 8.55742 | 1411 ft | 4 kts | 83° |
| 2026-05-06 02:28 | 47.45950 | 8.55724 | 1409 ft | 5 kts | 96° |
| 2026-05-06 02:30 | 47.45948 | 8.55749 | 1431 ft | 9 kts | 96° |
| 2026-05-06 02:31 | 47.45941 | 8.55855 | 1413 ft | 11 kts | 96° |
| 2026-05-06 02:31 | 47.45933 | 8.55965 | 1419 ft | 11 kts | 96° |
| 2026-05-06 02:31 | 47.45925 | 8.56073 | 1419 ft | 11 kts | 96° |
| 2026-05-06 02:31 | 47.45917 | 8.56183 | 1418 ft | 11 kts | 96° |
| 2026-05-06 02:32 | 47.45909 | 8.56298 | 1419 ft | 13 kts | 96° |
| 2026-05-06 02:32 | 47.45886 | 8.56429 | 1426 ft | 13 kts | 124° |
| 2026-05-06 02:32 | 47.45812 | 8.56541 | 1425 ft | 16 kts | 123° |
| 2026-05-06 02:32 | 47.45790 | 8.56705 | 1426 ft | 17 kts | 96° |
| 2026-05-06 02:33 | 47.45778 | 8.56875 | 1428 ft | 16 kts | 96° |
| 2026-05-06 02:33 | 47.45765 | 8.56977 | 1430 ft | 12 kts | 112° |
| 2026-05-06 02:34 | 47.45667 | 8.56942 | 1430 ft | 8 kts | 277° |
| 2026-05-06 02:34 | 47.45688 | 8.56657 | 1423 ft | 64 kts | 276° |
| 2026-05-06 02:34 | 47.45765 | 8.55554 | 1415 ft | 150 kts | 276° |
| 2026-05-06 02:34 | 47.45891 | 8.53777 | 1897 ft | 181 kts | 275° |
| 2026-05-06 02:35 | 47.46018 | 8.51891 | 2914 ft | 193 kts | 275° |
| 2026-05-06 02:35 | 47.46157 | 8.49868 | 3501 ft | 199 kts | 275° |
| 2026-05-06 02:35 | 47.46116 | 8.47817 | 4126 ft | 202 kts | 256° |
| 2026-05-06 02:35 | 47.45327 | 8.46121 | 4775 ft | 206 kts | 220° |
| 2026-05-06 02:36 | 47.44191 | 8.44827 | 5450 ft | 207 kts | 222° |
| 2026-05-06 02:36 | 47.43181 | 8.43299 | 6109 ft | 210 kts | 232° |
| 2026-05-06 02:36 | 47.42287 | 8.41555 | 6553 ft | 223 kts | 234° |
| 2026-05-06 02:36 | 47.41343 | 8.39597 | 6874 ft | 245 kts | 235° |
| 2026-05-06 02:37 | 47.40335 | 8.37480 | 7438 ft | 257 kts | 234° |
| 2026-05-06 02:37 | 47.39304 | 8.35295 | 8189 ft | 263 kts | 235° |
| 2026-05-06 02:37 | 47.38365 | 8.32938 | 8988 ft | 269 kts | 240° |
| 2026-05-06 02:37 | 47.37485 | 8.30474 | 9853 ft | 272 kts | 239° |
| 2026-05-06 02:38 | 47.36592 | 8.27954 | 10467 ft | 284 kts | 240° |
| 2026-05-06 02:38 | 47.35643 | 8.25286 | 10838 ft | 304 kts | 240° |
| 2026-05-06 02:38 | 47.34629 | 8.22439 | 11207 ft | 323 kts | 240° |
| 2026-05-06 02:38 | 47.33557 | 8.19426 | 11580 ft | 340 kts | 240° |
| 2026-05-06 02:39 | 47.32444 | 8.16291 | 12161 ft | 349 kts | 240° |
| 2026-05-06 02:39 | 47.31309 | 8.13097 | 12875 ft | 354 kts | 241° |
| 2026-05-06 02:39 | 47.30160 | 8.09853 | 13610 ft | 359 kts | 240° |
| 2026-05-06 02:39 | 47.28992 | 8.06570 | 14238 ft | 364 kts | 240° |
| 2026-05-06 02:40 | 47.27810 | 8.03253 | 14924 ft | 367 kts | 240° |
| 2026-05-06 02:40 | 47.26661 | 7.99885 | 15613 ft | 370 kts | 243° |
| 2026-05-06 02:40 | 47.25615 | 7.96441 | 16271 ft | 374 kts | 245° |
| 2026-05-06 02:40 | 47.24612 | 7.92888 | 16964 ft | 378 kts | 246° |
| 2026-05-06 02:41 | 47.23626 | 7.89283 | 17636 ft | 381 kts | 246° |
| 2026-05-06 02:41 | 47.22635 | 7.85644 | 18298 ft | 385 kts | 246° |
| 2026-05-06 02:41 | 47.21628 | 7.81976 | 18926 ft | 388 kts | 245° |
| 2026-05-06 02:41 | 47.20607 | 7.78288 | 19559 ft | 390 kts | 245° |
| 2026-05-06 02:42 | 47.19528 | 7.74608 | 20219 ft | 392 kts | 241° |
| 2026-05-06 02:42 | 47.18120 | 7.71156 | 20868 ft | 393 kts | 234° |
| 2026-05-06 02:42 | 47.16527 | 7.67868 | 21511 ft | 396 kts | 232° |
| 2026-05-06 02:42 | 47.14849 | 7.64648 | 22133 ft | 399 kts | 230° |
| 2026-05-06 02:43 | 47.13117 | 7.61448 | 22780 ft | 401 kts | 230° |
| 2026-05-06 02:43 | 47.11359 | 7.58249 | 23460 ft | 403 kts | 230° |
| 2026-05-06 02:43 | 47.09590 | 7.55036 | 24000 ft | 405 kts | 230° |
| 2026-05-06 02:43 | 47.07820 | 7.51808 | 24587 ft | 407 kts | 230° |
| 2026-05-06 02:44 | 47.06070 | 7.48607 | 25142 ft | 408 kts | 230° |
| 2026-05-06 02:44 | 47.04295 | 7.45349 | 25725 ft | 409 kts | 230° |
| 2026-05-06 02:44 | 47.02515 | 7.42076 | 26301 ft | 410 kts | 230° |
| 2026-05-06 02:44 | 47.00736 | 7.38804 | 26900 ft | 411 kts | 229° |
| 2026-05-06 02:45 | 46.98939 | 7.35518 | 27426 ft | 414 kts | 229° |
| 2026-05-06 02:45 | 46.97135 | 7.32229 | 27983 ft | 415 kts | 229° |
| 2026-05-06 02:45 | 46.95322 | 7.28932 | 28531 ft | 417 kts | 229° |
| 2026-05-06 02:45 | 46.93502 | 7.25618 | 29108 ft | 417 kts | 229° |
| 2026-05-06 02:46 | 46.91685 | 7.22306 | 29690 ft | 418 kts | 229° |
| 2026-05-06 02:46 | 46.89863 | 7.18985 | 30109 ft | 419 kts | 229° |
| 2026-05-06 02:46 | 46.88051 | 7.15687 | 30418 ft | 423 kts | 229° |
| 2026-05-06 02:46 | 46.86201 | 7.12323 | 30685 ft | 427 kts | 229° |
| 2026-05-06 02:47 | 46.84324 | 7.08916 | 30958 ft | 431 kts | 229° |
| 2026-05-06 02:47 | 46.82435 | 7.05490 | 31215 ft | 434 kts | 229° |
| 2026-05-06 02:47 | 46.80531 | 7.02040 | 31482 ft | 437 kts | 229° |
| 2026-05-06 02:47 | 46.78613 | 6.98571 | 31745 ft | 440 kts | 229° |
| 2026-05-06 02:48 | 46.76683 | 6.95084 | 32041 ft | 442 kts | 229° |
| 2026-05-06 02:48 | 46.74753 | 6.91601 | 32469 ft | 441 kts | 229° |
| 2026-05-06 02:48 | 46.72825 | 6.88124 | 32854 ft | 441 kts | 229° |
| 2026-05-06 02:48 | 46.70913 | 6.84682 | 33116 ft | 443 kts | 230° |
| 2026-05-06 02:49 | 46.68969 | 6.81188 | 33440 ft | 444 kts | 230° |
| 2026-05-06 02:49 | 46.67024 | 6.77684 | 33756 ft | 445 kts | 230° |
| 2026-05-06 02:49 | 46.65228 | 6.74003 | 34033 ft | 447 kts | 236° |
| 2026-05-06 02:49 | 46.63553 | 6.70166 | 34308 ft | 448 kts | 236° |
| 2026-05-06 02:50 | 46.61917 | 6.66310 | 34556 ft | 449 kts | 237° |
| 2026-05-06 02:50 | 46.60293 | 6.62422 | 34815 ft | 449 kts | 237° |
| 2026-05-06 02:50 | 46.58678 | 6.58535 | 35074 ft | 450 kts | 237° |
| 2026-05-06 02:50 | 46.57056 | 6.54630 | 35328 ft | 451 kts | 237° |
| 2026-05-06 02:51 | 46.55430 | 6.50730 | 35554 ft | 451 kts | 237° |
| 2026-05-06 02:51 | 46.53819 | 6.46878 | 35775 ft | 452 kts | 237° |
| 2026-05-06 02:51 | 46.52176 | 6.42962 | 35967 ft | 455 kts | 237° |
| 2026-05-06 02:51 | 46.50519 | 6.39023 | 36087 ft | 457 kts | 237° |
| 2026-05-06 02:52 | 46.48855 | 6.35074 | 36325 ft | 458 kts | 237° |
| 2026-05-06 02:52 | 46.47191 | 6.31133 | 36556 ft | 458 kts | 237° |
| 2026-05-06 02:52 | 46.45526 | 6.27194 | 36787 ft | 459 kts | 237° |
| 2026-05-06 02:52 | 46.43855 | 6.23245 | 37001 ft | 459 kts | 237° |
| 2026-05-06 02:53 | 46.42182 | 6.19299 | 37218 ft | 460 kts | 237° |
| 2026-05-06 02:53 | 46.40503 | 6.15343 | 37405 ft | 460 kts | 237° |
| 2026-05-06 02:53 | 46.38846 | 6.11445 | 37625 ft | 460 kts | 237° |
| 2026-05-06 02:53 | 46.37166 | 6.07496 | 37849 ft | 460 kts | 237° |
| 2026-05-06 02:54 | 46.35486 | 6.03554 | 38028 ft | 461 kts | 237° |
| 2026-05-06 02:54 | 46.33796 | 5.99597 | 38242 ft | 462 kts | 237° |
| 2026-05-06 02:54 | 46.32102 | 5.95634 | 38368 ft | 463 kts | 237° |
| 2026-05-06 02:54 | 46.30404 | 5.91668 | 38535 ft | 464 kts | 237° |
| 2026-05-06 02:55 | 46.28704 | 5.87702 | 38680 ft | 464 kts | 237° |
| 2026-05-06 02:55 | 46.27003 | 5.83738 | 38808 ft | 465 kts | 237° |
| 2026-05-06 02:55 | 46.25292 | 5.79760 | 38861 ft | 466 kts | 237° |
| 2026-05-06 02:56 | 46.21873 | 5.71825 | 38859 ft | 465 kts | 237° |
| 2026-05-06 02:56 | 46.18448 | 5.63897 | 38864 ft | 465 kts | 236° |
| 2026-05-06 02:57 | 46.15019 | 5.55982 | 38868 ft | 465 kts | 236° |
| 2026-05-06 02:57 | 46.11459 | 5.48172 | 38860 ft | 466 kts | 234° |
| 2026-05-06 02:58 | 46.07720 | 5.40529 | 38859 ft | 467 kts | 233° |
| 2026-05-06 02:58 | 46.03981 | 5.32891 | 38853 ft | 467 kts | 233° |
| 2026-05-06 02:59 | 46.00282 | 5.25265 | 38857 ft | 468 kts | 234° |
| 2026-05-06 02:59 | 45.96568 | 5.17588 | 38855 ft | 468 kts | 234° |
| 2026-05-06 03:00 | 45.92846 | 5.09908 | 38856 ft | 468 kts | 234° |
| 2026-05-06 03:00 | 45.89118 | 5.02241 | 38854 ft | 468 kts | 234° |
| 2026-05-06 03:01 | 45.85384 | 4.94586 | 38856 ft | 468 kts | 234° |
| 2026-05-06 03:01 | 45.81650 | 4.86952 | 38856 ft | 467 kts | 234° |
| 2026-05-06 03:02 | 45.77910 | 4.79326 | 38856 ft | 467 kts | 234° |
| 2026-05-06 03:02 | 45.74170 | 4.71721 | 38855 ft | 467 kts | 234° |
| 2026-05-06 03:03 | 45.70423 | 4.64119 | 38856 ft | 467 kts | 234° |
| 2026-05-06 03:03 | 45.66676 | 4.56526 | 38857 ft | 467 kts | 234° |
| 2026-05-06 03:04 | 45.62947 | 4.49006 | 38856 ft | 466 kts | 234° |
| 2026-05-06 03:04 | 45.59195 | 4.41457 | 38856 ft | 466 kts | 234° |
| 2026-05-06 03:05 | 45.55435 | 4.33911 | 38857 ft | 466 kts | 233° |
| 2026-05-06 03:05 | 45.51676 | 4.26383 | 38849 ft | 466 kts | 233° |
| 2026-05-06 03:06 | 45.47909 | 4.18866 | 38859 ft | 465 kts | 233° |
| 2026-05-06 03:06 | 45.44147 | 4.11382 | 38862 ft | 464 kts | 233° |
| 2026-05-06 03:07 | 45.40408 | 4.03964 | 38864 ft | 464 kts | 233° |
| 2026-05-06 03:07 | 45.36636 | 3.96499 | 38855 ft | 464 kts | 233° |
| 2026-05-06 03:08 | 45.32860 | 3.89046 | 38875 ft | 464 kts | 233° |
| 2026-05-06 03:08 | 45.29081 | 3.81606 | 38875 ft | 465 kts | 233° |
| 2026-05-06 03:09 | 45.25283 | 3.74145 | 38873 ft | 466 kts | 233° |
| 2026-05-06 03:09 | 45.21548 | 3.66623 | 38878 ft | 466 kts | 234° |
| 2026-05-06 03:10 | 45.17849 | 3.59063 | 38884 ft | 466 kts | 234° |
| 2026-05-06 03:10 | 45.14140 | 3.51520 | 38889 ft | 466 kts | 234° |
| 2026-05-06 03:11 | 45.10439 | 3.44044 | 38891 ft | 466 kts | 234° |
| 2026-05-06 03:11 | 45.06706 | 3.36532 | 38898 ft | 466 kts | 234° |
| 2026-05-06 03:12 | 45.02973 | 3.29044 | 38898 ft | 466 kts | 234° |
| 2026-05-06 03:12 | 44.99226 | 3.21545 | 38900 ft | 466 kts | 234° |
| 2026-05-06 03:13 | 44.96117 | 3.15336 | 38898 ft | 466 kts | 234° |
| 2026-05-06 03:13 | 44.92368 | 3.07868 | 38903 ft | 466 kts | 234° |
| 2026-05-06 03:14 | 44.88622 | 3.00423 | 38901 ft | 466 kts | 234° |
| 2026-05-06 03:14 | 44.84858 | 2.92963 | 38901 ft | 467 kts | 234° |
| 2026-05-06 03:15 | 44.81226 | 2.85373 | 38900 ft | 467 kts | 237° |
| 2026-05-06 03:15 | 44.77737 | 2.77646 | 38905 ft | 467 kts | 237° |
| 2026-05-06 03:16 | 44.74236 | 2.69944 | 38905 ft | 467 kts | 237° |
| 2026-05-06 03:16 | 44.70702 | 2.62284 | 38898 ft | 468 kts | 236° |
| 2026-05-06 03:17 | 44.67136 | 2.54608 | 38913 ft | 469 kts | 236° |
| 2026-05-06 03:17 | 44.63564 | 2.46947 | 38897 ft | 469 kts | 236° |
| 2026-05-06 03:18 | 44.60008 | 2.39336 | 38916 ft | 469 kts | 236° |
| 2026-05-06 03:18 | 44.56426 | 2.31690 | 38908 ft | 468 kts | 236° |
| 2026-05-06 03:19 | 44.52848 | 2.24069 | 38899 ft | 468 kts | 236° |
| 2026-05-06 03:19 | 44.49265 | 2.16459 | 38906 ft | 469 kts | 236° |
| 2026-05-06 03:20 | 44.43870 | 2.05037 | 38910 ft | 469 kts | 236° |
| 2026-05-06 03:20 | 44.40269 | 1.97439 | 38902 ft | 469 kts | 236° |
| 2026-05-06 03:21 | 44.36663 | 1.89850 | 38926 ft | 467 kts | 236° |
| 2026-05-06 03:21 | 44.33060 | 1.82288 | 38933 ft | 468 kts | 236° |
| 2026-05-06 03:22 | 44.29469 | 1.74768 | 38933 ft | 468 kts | 236° |
| 2026-05-06 03:22 | 44.25920 | 1.67152 | 38924 ft | 468 kts | 237° |
| 2026-05-06 03:23 | 44.22422 | 1.59476 | 38921 ft | 468 kts | 237° |
| 2026-05-06 03:23 | 44.18920 | 1.51827 | 38945 ft | 468 kts | 237° |
| 2026-05-06 03:24 | 44.15401 | 1.44200 | 38944 ft | 468 kts | 237° |
| 2026-05-06 03:24 | 44.11867 | 1.36574 | 38932 ft | 469 kts | 237° |
| 2026-05-06 03:25 | 44.08328 | 1.28959 | 38936 ft | 469 kts | 237° |
| 2026-05-06 03:25 | 44.04782 | 1.21349 | 38935 ft | 469 kts | 237° |
| 2026-05-06 03:26 | 44.01234 | 1.13751 | 38953 ft | 469 kts | 237° |
| 2026-05-06 03:26 | 43.97705 | 1.06216 | 38935 ft | 469 kts | 237° |
| 2026-05-06 03:27 | 43.94146 | 0.98634 | 38947 ft | 469 kts | 237° |
| 2026-05-06 03:27 | 43.90581 | 0.91060 | 38950 ft | 469 kts | 237° |
| 2026-05-06 03:28 | 43.87044 | 0.83467 | 38949 ft | 469 kts | 239° |
| 2026-05-06 03:28 | 43.83718 | 0.75698 | 38937 ft | 469 kts | 240° |
| 2026-05-06 03:29 | 43.80429 | 0.67898 | 38945 ft | 468 kts | 240° |
| 2026-05-06 03:29 | 43.77109 | 0.60140 | 38944 ft | 468 kts | 240° |
| 2026-05-06 03:30 | 43.73773 | 0.52429 | 38949 ft | 467 kts | 239° |
| 2026-05-06 03:30 | 43.70419 | 0.44718 | 38949 ft | 468 kts | 239° |
| 2026-05-06 03:31 | 43.67088 | 0.37076 | 38949 ft | 467 kts | 239° |
| 2026-05-06 03:31 | 43.63728 | 0.29384 | 38939 ft | 468 kts | 239° |
| 2026-05-06 03:32 | 43.60360 | 0.21695 | 38951 ft | 467 kts | 240° |
| 2026-05-06 03:32 | 43.57000 | 0.14042 | 38955 ft | 466 kts | 239° |
| 2026-05-06 03:33 | 43.53633 | 0.06394 | 38957 ft | 466 kts | 239° |
| 2026-05-06 03:33 | 43.50263 | -0.01240 | 38969 ft | 466 kts | 239° |
| 2026-05-06 03:34 | 43.46884 | -0.08875 | 38964 ft | 467 kts | 239° |
| 2026-05-06 03:34 | 43.43492 | -0.16518 | 38964 ft | 467 kts | 239° |
| 2026-05-06 03:35 | 43.40104 | -0.24133 | 38965 ft | 465 kts | 239° |
| 2026-05-06 03:35 | 43.36743 | -0.31667 | 38966 ft | 464 kts | 239° |
| 2026-05-06 03:36 | 43.33364 | -0.39223 | 38966 ft | 464 kts | 239° |
| 2026-05-06 03:36 | 43.29981 | -0.46768 | 38965 ft | 464 kts | 239° |
| 2026-05-06 03:37 | 43.26593 | -0.54305 | 38967 ft | 464 kts | 239° |
| 2026-05-06 03:37 | 43.23199 | -0.61836 | 38970 ft | 464 kts | 239° |
| 2026-05-06 03:38 | 43.19800 | -0.69357 | 38972 ft | 463 kts | 239° |
| 2026-05-06 03:38 | 43.16405 | -0.76851 | 38985 ft | 462 kts | 239° |
| 2026-05-06 03:39 | 43.13008 | -0.84330 | 38982 ft | 463 kts | 239° |
| 2026-05-06 03:39 | 43.09621 | -0.91771 | 38987 ft | 463 kts | 239° |
| 2026-05-06 03:40 | 43.06203 | -0.99258 | 38987 ft | 463 kts | 239° |
| 2026-05-06 03:40 | 43.02784 | -1.06729 | 38988 ft | 463 kts | 239° |
| 2026-05-06 03:41 | 42.99360 | -1.14194 | 38992 ft | 463 kts | 239° |
| 2026-05-06 03:41 | 42.95943 | -1.21620 | 38993 ft | 462 kts | 239° |
| 2026-05-06 03:42 | 42.92538 | -1.28997 | 38997 ft | 462 kts | 239° |
| 2026-05-06 03:42 | 42.89111 | -1.36407 | 38996 ft | 462 kts | 239° |
| 2026-05-06 03:43 | 42.85681 | -1.43803 | 38995 ft | 462 kts | 239° |
| 2026-05-06 03:43 | 42.82244 | -1.51197 | 38994 ft | 462 kts | 239° |
| 2026-05-06 03:44 | 42.78799 | -1.58592 | 38993 ft | 463 kts | 239° |
| 2026-05-06 03:44 | 42.75349 | -1.65985 | 38995 ft | 463 kts | 239° |
| 2026-05-06 03:45 | 42.72607 | -1.73872 | 38995 ft | 461 kts | 251° |
| 2026-05-06 03:45 | 42.70626 | -1.82156 | 38996 ft | 461 kts | 253° |
| 2026-05-06 03:46 | 42.68766 | -1.90509 | 39016 ft | 461 kts | 253° |
| 2026-05-06 03:46 | 42.66921 | -1.98787 | 39022 ft | 462 kts | 253° |
| 2026-05-06 03:47 | 42.65032 | -2.07139 | 39019 ft | 462 kts | 253° |
| 2026-05-06 03:47 | 42.63128 | -2.15481 | 39021 ft | 462 kts | 253° |
| 2026-05-06 03:48 | 42.61165 | -2.23799 | 39021 ft | 462 kts | 252° |
| 2026-05-06 03:48 | 42.59130 | -2.32079 | 39020 ft | 462 kts | 252° |
| 2026-05-06 03:49 | 42.57095 | -2.40353 | 39023 ft | 462 kts | 252° |
| 2026-05-06 03:49 | 42.55083 | -2.48563 | 39026 ft | 462 kts | 252° |
| 2026-05-06 03:50 | 42.53057 | -2.56826 | 39026 ft | 462 kts | 252° |
| 2026-05-06 03:50 | 42.51025 | -2.65088 | 39030 ft | 462 kts | 252° |
| 2026-05-06 03:51 | 42.48986 | -2.73344 | 39032 ft | 462 kts | 252° |
| 2026-05-06 03:51 | 42.46939 | -2.81604 | 39048 ft | 463 kts | 252° |
| 2026-05-06 03:52 | 42.44702 | -2.89789 | 39047 ft | 464 kts | 248° |
| 2026-05-06 03:52 | 42.42067 | -2.97755 | 39049 ft | 464 kts | 246° |
| 2026-05-06 03:53 | 42.39359 | -3.05687 | 39055 ft | 464 kts | 246° |
| 2026-05-06 03:53 | 42.36641 | -3.13603 | 39057 ft | 464 kts | 246° |
| 2026-05-06 03:54 | 42.33943 | -3.21465 | 39051 ft | 463 kts | 246° |
| 2026-05-06 03:54 | 42.31232 | -3.29353 | 39044 ft | 463 kts | 246° |
| 2026-05-06 03:55 | 42.28514 | -3.37244 | 39035 ft | 463 kts | 246° |
| 2026-05-06 03:55 | 42.25790 | -3.45131 | 39030 ft | 463 kts | 246° |
| 2026-05-06 03:56 | 42.23064 | -3.52999 | 39027 ft | 463 kts | 246° |
| 2026-05-06 03:56 | 42.20330 | -3.60869 | 39028 ft | 463 kts | 246° |
| 2026-05-06 03:57 | 42.17591 | -3.68730 | 39045 ft | 463 kts | 246° |
| 2026-05-06 03:57 | 42.14848 | -3.76580 | 39045 ft | 463 kts | 246° |
| 2026-05-06 03:58 | 42.12116 | -3.84376 | 39039 ft | 463 kts | 246° |
| 2026-05-06 03:58 | 42.09352 | -3.92244 | 39044 ft | 468 kts | 246° |
| 2026-05-06 03:59 | 42.06541 | -4.00224 | 39043 ft | 474 kts | 246° |
| 2026-05-06 03:59 | 42.03547 | -4.08158 | 39040 ft | 478 kts | 239° |
| 2026-05-06 04:00 | 41.99258 | -4.15009 | 39049 ft | 482 kts | 226° |
| 2026-05-06 04:00 | 41.94260 | -4.21046 | 39045 ft | 484 kts | 224° |
| 2026-05-06 04:01 | 41.90014 | -4.25945 | 39032 ft | 484 kts | 223° |
| 2026-05-06 04:01 | 41.84061 | -4.32811 | 39043 ft | 483 kts | 224° |
| 2026-05-06 04:02 | 41.79840 | -4.37709 | 39042 ft | 482 kts | 224° |
| 2026-05-06 04:02 | 41.74771 | -4.43602 | 39042 ft | 482 kts | 224° |
| 2026-05-06 04:03 | 41.69702 | -4.49485 | 39042 ft | 482 kts | 224° |
| 2026-05-06 04:03 | 41.64625 | -4.55364 | 39040 ft | 482 kts | 224° |
| 2026-05-06 04:04 | 41.59553 | -4.61221 | 39039 ft | 482 kts | 224° |
| 2026-05-06 04:04 | 41.54510 | -4.67033 | 39039 ft | 482 kts | 224° |
| 2026-05-06 04:05 | 41.49426 | -4.72880 | 39031 ft | 482 kts | 224° |
| 2026-05-06 04:05 | 41.44343 | -4.78713 | 39033 ft | 482 kts | 224° |
| 2026-05-06 04:06 | 41.39250 | -4.84545 | 39037 ft | 482 kts | 224° |
| 2026-05-06 04:06 | 41.34158 | -4.90364 | 39040 ft | 482 kts | 224° |
| 2026-05-06 04:07 | 41.29082 | -4.96151 | 39037 ft | 480 kts | 224° |
| 2026-05-06 04:07 | 41.24009 | -5.01928 | 39037 ft | 480 kts | 224° |
| 2026-05-06 04:08 | 41.18937 | -5.07679 | 39038 ft | 479 kts | 223° |
| 2026-05-06 04:08 | 41.13868 | -5.13414 | 39038 ft | 478 kts | 223° |
| 2026-05-06 04:09 | 41.08835 | -5.19099 | 39037 ft | 478 kts | 223° |
| 2026-05-06 04:09 | 41.03766 | -5.24814 | 39029 ft | 478 kts | 223° |
| 2026-05-06 04:10 | 40.98697 | -5.30517 | 39021 ft | 477 kts | 223° |
| 2026-05-06 04:10 | 40.93648 | -5.36185 | 39021 ft | 475 kts | 223° |
| 2026-05-06 04:11 | 40.88596 | -5.41847 | 39022 ft | 476 kts | 223° |
| 2026-05-06 04:11 | 40.83545 | -5.47495 | 39022 ft | 476 kts | 223° |
| 2026-05-06 04:12 | 40.78485 | -5.53141 | 39028 ft | 476 kts | 223° |
| 2026-05-06 04:12 | 40.73435 | -5.58764 | 39034 ft | 473 kts | 223° |
| 2026-05-06 04:13 | 40.68410 | -5.64347 | 39042 ft | 472 kts | 223° |
| 2026-05-06 04:13 | 40.63386 | -5.69919 | 39042 ft | 472 kts | 223° |
| 2026-05-06 04:14 | 40.58357 | -5.75485 | 39039 ft | 472 kts | 223° |
| 2026-05-06 04:14 | 40.53351 | -5.81014 | 39040 ft | 473 kts | 223° |
| 2026-05-06 04:15 | 40.48320 | -5.86568 | 39035 ft | 472 kts | 223° |
| 2026-05-06 04:15 | 40.43282 | -5.92110 | 39034 ft | 472 kts | 223° |
| 2026-05-06 04:16 | 40.38239 | -5.97644 | 39026 ft | 473 kts | 223° |
| 2026-05-06 04:16 | 40.33187 | -6.03180 | 39027 ft | 473 kts | 223° |
| 2026-05-06 04:17 | 40.28138 | -6.08702 | 39018 ft | 472 kts | 223° |
| 2026-05-06 04:17 | 40.23092 | -6.14210 | 39021 ft | 472 kts | 223° |
| 2026-05-06 04:18 | 40.18040 | -6.19714 | 39014 ft | 472 kts | 223° |
| 2026-05-06 04:18 | 40.12982 | -6.25213 | 39014 ft | 473 kts | 223° |
| 2026-05-06 04:19 | 40.07928 | -6.30696 | 38988 ft | 472 kts | 223° |
| 2026-05-06 04:19 | 40.02896 | -6.36145 | 39005 ft | 472 kts | 223° |
| 2026-05-06 04:20 | 39.97843 | -6.41612 | 39012 ft | 472 kts | 223° |
| 2026-05-06 04:20 | 39.93065 | -6.47438 | 39012 ft | 469 kts | 228° |
| 2026-05-06 04:21 | 39.88529 | -6.53540 | 39013 ft | 469 kts | 229° |
| 2026-05-06 04:21 | 39.84030 | -6.59693 | 39002 ft | 468 kts | 229° |
| 2026-05-06 04:22 | 39.79530 | -6.65822 | 39010 ft | 468 kts | 229° |
| 2026-05-06 04:23 | 39.72772 | -6.74968 | 39015 ft | 468 kts | 229° |
| 2026-05-06 04:23 | 39.68260 | -6.81051 | 39015 ft | 468 kts | 229° |
| 2026-05-06 04:24 | 39.63743 | -6.87130 | 39012 ft | 468 kts | 229° |
| 2026-05-06 04:24 | 39.59219 | -6.93206 | 39004 ft | 468 kts | 229° |
| 2026-05-06 04:25 | 39.54697 | -6.99267 | 39020 ft | 467 kts | 229° |
| 2026-05-06 04:25 | 39.50177 | -7.05314 | 39020 ft | 467 kts | 229° |
| 2026-05-06 04:26 | 39.45688 | -7.11308 | 39020 ft | 467 kts | 229° |
| 2026-05-06 04:26 | 39.41162 | -7.17339 | 39023 ft | 467 kts | 229° |
| 2026-05-06 04:27 | 39.36637 | -7.23358 | 39019 ft | 467 kts | 228° |
| 2026-05-06 04:27 | 39.32104 | -7.29374 | 39021 ft | 467 kts | 228° |
| 2026-05-06 04:28 | 39.27570 | -7.35380 | 39029 ft | 466 kts | 228° |
| 2026-05-06 04:28 | 39.23036 | -7.41373 | 39028 ft | 466 kts | 228° |
| 2026-05-06 04:29 | 39.18495 | -7.47365 | 39028 ft | 466 kts | 228° |
| 2026-05-06 04:29 | 39.13955 | -7.53343 | 39028 ft | 466 kts | 228° |
| 2026-05-06 04:30 | 39.09443 | -7.59273 | 39022 ft | 466 kts | 228° |
| 2026-05-06 04:30 | 39.04904 | -7.65227 | 39033 ft | 466 kts | 228° |
| 2026-05-06 04:31 | 39.00361 | -7.71174 | 39032 ft | 466 kts | 228° |
| 2026-05-06 04:31 | 38.95811 | -7.77120 | 39032 ft | 466 kts | 228° |
| 2026-05-06 04:32 | 38.91255 | -7.83060 | 39031 ft | 466 kts | 228° |
| 2026-05-06 04:32 | 38.86694 | -7.88996 | 39031 ft | 467 kts | 228° |
| 2026-05-06 04:33 | 38.82135 | -7.94918 | 39030 ft | 466 kts | 228° |
| 2026-05-06 04:33 | 38.77581 | -8.00822 | 39031 ft | 465 kts | 228° |
| 2026-05-06 04:34 | 38.73025 | -8.06718 | 39039 ft | 465 kts | 228° |
| 2026-05-06 04:34 | 38.68464 | -8.12608 | 39037 ft | 465 kts | 228° |
| 2026-05-06 04:35 | 38.63934 | -8.18447 | 39040 ft | 465 kts | 227° |
| 2026-05-06 04:35 | 38.59370 | -8.24319 | 39026 ft | 465 kts | 227° |
| 2026-05-06 04:36 | 38.54810 | -8.30174 | 39038 ft | 463 kts | 227° |
| 2026-05-06 04:36 | 38.50269 | -8.35993 | 39042 ft | 463 kts | 227° |
| 2026-05-06 04:37 | 38.45710 | -8.41827 | 39041 ft | 464 kts | 227° |
| 2026-05-06 04:37 | 38.41141 | -8.47661 | 39041 ft | 465 kts | 227° |
| 2026-05-06 04:38 | 38.36565 | -8.53492 | 39048 ft | 465 kts | 227° |
| 2026-05-06 04:38 | 38.31986 | -8.59315 | 39042 ft | 464 kts | 227° |
| 2026-05-06 04:39 | 38.27448 | -8.65076 | 39045 ft | 463 kts | 227° |
| 2026-05-06 04:39 | 38.22882 | -8.70862 | 39045 ft | 463 kts | 227° |
| 2026-05-06 04:40 | 38.18309 | -8.76648 | 39047 ft | 465 kts | 227° |
| 2026-05-06 04:40 | 38.13719 | -8.82442 | 39045 ft | 465 kts | 227° |
| 2026-05-06 04:41 | 38.09119 | -8.88239 | 39045 ft | 465 kts | 227° |
| 2026-05-06 04:41 | 38.04520 | -8.94023 | 39045 ft | 465 kts | 227° |
| 2026-05-06 04:42 | 37.99919 | -8.99798 | 39045 ft | 465 kts | 227° |
| 2026-05-06 04:42 | 37.95314 | -9.05568 | 39045 ft | 465 kts | 227° |
| 2026-05-06 04:43 | 37.90733 | -9.11297 | 39046 ft | 466 kts | 227° |
| 2026-05-06 04:43 | 37.86101 | -9.17081 | 39048 ft | 468 kts | 227° |
| 2026-05-06 04:44 | 37.81456 | -9.22868 | 39044 ft | 468 kts | 227° |
| 2026-05-06 04:44 | 37.76814 | -9.28640 | 39047 ft | 467 kts | 227° |
| 2026-05-06 04:45 | 37.72178 | -9.34395 | 39047 ft | 467 kts | 227° |
| 2026-05-06 04:45 | 37.67539 | -9.40143 | 39048 ft | 467 kts | 227° |
| 2026-05-06 04:46 | 37.62899 | -9.45883 | 39048 ft | 467 kts | 227° |
| 2026-05-06 04:46 | 37.59032 | -9.50658 | 39048 ft | 468 kts | 227° |
| 2026-05-06 04:47 | 37.53610 | -9.57340 | 39044 ft | 468 kts | 226° |
| 2026-05-06 04:47 | 37.48947 | -9.63075 | 39052 ft | 468 kts | 226° |
| 2026-05-06 04:48 | 37.44289 | -9.68793 | 39062 ft | 467 kts | 226° |
| 2026-05-06 04:48 | 37.40416 | -9.73541 | 39048 ft | 467 kts | 226° |
| 2026-05-06 04:49 | 37.34992 | -9.80177 | 39061 ft | 467 kts | 226° |
| 2026-05-06 04:49 | 37.31088 | -9.84944 | 39065 ft | 468 kts | 226° |
| 2026-05-06 04:50 | 37.26406 | -9.90653 | 39053 ft | 469 kts | 226° |
| 2026-05-06 04:50 | 37.21752 | -9.96316 | 39055 ft | 469 kts | 226° |
| 2026-05-06 04:51 | 37.17063 | -10.02011 | 39060 ft | 469 kts | 226° |
| 2026-05-06 04:51 | 37.12376 | -10.07693 | 39060 ft | 469 kts | 226° |
| 2026-05-06 04:52 | 37.07689 | -10.13367 | 39063 ft | 469 kts | 226° |
| 2026-05-06 04:52 | 37.02987 | -10.19047 | 39051 ft | 469 kts | 226° |
| 2026-05-06 04:53 | 36.98292 | -10.24709 | 39056 ft | 469 kts | 226° |
| 2026-05-06 04:53 | 36.93613 | -10.30342 | 39063 ft | 470 kts | 226° |
| 2026-05-06 04:54 | 36.88892 | -10.36015 | 39064 ft | 470 kts | 226° |
| 2026-05-06 04:54 | 36.84163 | -10.41685 | 39054 ft | 470 kts | 226° |
| 2026-05-06 04:55 | 36.79445 | -10.47334 | 39065 ft | 470 kts | 226° |
| 2026-05-06 04:55 | 36.74722 | -10.52978 | 39060 ft | 470 kts | 226° |
| 2026-05-06 04:56 | 36.70010 | -10.58598 | 39064 ft | 469 kts | 226° |
| 2026-05-06 04:56 | 36.65308 | -10.64199 | 39067 ft | 471 kts | 226° |
| 2026-05-06 04:57 | 36.60574 | -10.69827 | 39069 ft | 471 kts | 226° |
| 2026-05-06 04:57 | 36.55824 | -10.75463 | 39070 ft | 471 kts | 226° |
| 2026-05-06 04:58 | 36.51073 | -10.81089 | 39066 ft | 471 kts | 226° |
| 2026-05-06 04:58 | 36.46327 | -10.86701 | 39066 ft | 470 kts | 226° |
| 2026-05-06 04:59 | 36.41584 | -10.92298 | 39072 ft | 470 kts | 226° |
| 2026-05-06 04:59 | 36.36838 | -10.97890 | 39071 ft | 471 kts | 226° |
| 2026-05-06 05:00 | 36.32097 | -11.03467 | 39075 ft | 473 kts | 226° |
| 2026-05-06 05:00 | 36.27317 | -11.09079 | 39078 ft | 473 kts | 226° |
| 2026-05-06 05:01 | 36.22534 | -11.14683 | 39057 ft | 473 kts | 226° |
| 2026-05-06 05:01 | 36.17759 | -11.20269 | 39064 ft | 471 kts | 225° |
| 2026-05-06 05:02 | 36.12992 | -11.25835 | 39064 ft | 470 kts | 225° |
| 2026-05-06 05:02 | 36.08232 | -11.31384 | 39084 ft | 470 kts | 225° |
| 2026-05-06 05:03 | 36.03453 | -11.36947 | 39085 ft | 473 kts | 225° |
| 2026-05-06 05:03 | 35.98645 | -11.42532 | 39083 ft | 474 kts | 225° |
| 2026-05-06 05:04 | 35.93481 | -11.47638 | 39075 ft | 476 kts | 219° |
| 2026-05-06 05:04 | 35.88108 | -11.52411 | 39088 ft | 476 kts | 218° |
| 2026-05-06 05:05 | 35.82746 | -11.57087 | 39281 ft | 475 kts | 218° |
| 2026-05-06 05:05 | 35.77353 | -11.61790 | 39470 ft | 475 kts | 218° |